Time;durP1;ratioP1;P1;durP2;ratioP2;P2;SDS_P1;SDS_P2;PMS_P1;PMS_P2;Temp;Humidity;BMP_temperature;BMP_pressure;BME280_temperature;BME280_humidity;BME280_pressure;Samples;Min_cycle;Max_cycle;Signal;HPM_P1;HPM_P2
2021/01/29 00:02:11;;;;;;;20.37;5.20;;;;;;;-1.47;81.72;98927.24;124397;1112;26229;-54
2021/01/29 00:04:41;;;;;;;17.40;4.95;;;;;;;-1.48;82.22;98915.52;124333;1111;23158;-53
2021/01/29 00:07:10;;;;;;;19.25;5.65;;;;;;;-1.48;82.34;98918.26;124475;1112;23141;-53
2021/01/29 00:09:39;;;;;;;16.23;4.77;;;;;;;-1.49;81.97;98905.01;124351;1112;23232;-55
2021/01/29 00:12:09;;;;;;;18.73;5.43;;;;;;;-1.52;81.47;98906.63;124588;1110;23107;-53
2021/01/29 00:14:38;;;;;;;24.10;6.60;;;;;;;-1.53;81.89;98909.80;124496;1111;23059;-56
2021/01/29 00:17:07;;;;;;;21.30;5.83;;;;;;;-1.54;82.25;98900.05;124322;1112;23026;-55
2021/01/29 00:19:36;;;;;;;19.70;6.23;;;;;;;-1.57;82.10;98901.67;124380;1112;23062;-53
2021/01/29 00:22:05;;;;;;;23.53;6.83;;;;;;;-1.59;82.47;98906.80;124363;1112;23017;-54
2021/01/29 00:24:34;;;;;;;23.57;5.80;;;;;;;-1.59;81.66;98911.53;124381;1112;23110;-54
2021/01/29 00:27:03;;;;;;;19.23;5.40;;;;;;;-1.61;81.32;98913.92;124370;1112;23073;-57
2021/01/29 00:29:33;;;;;;;23.85;6.10;;;;;;;-1.63;82.11;98910.85;124545;1112;23037;-53
2021/01/29 00:32:02;;;;;;;18.80;4.47;;;;;;;-1.63;81.57;98902.64;124462;1111;23020;-53
2021/01/29 00:34:31;;;;;;;13.43;3.43;;;;;;;-1.66;81.92;98896.83;124494;1112;23096;-53
2021/01/29 00:37:01;;;;;;;16.40;3.87;;;;;;;-1.67;81.76;98905.45;124337;1112;24677;-55
2021/01/29 00:39:30;;;;;;;18.32;4.83;;;;;;;-1.67;81.48;98911.69;124402;1112;23084;-54
2021/01/29 00:41:59;;;;;;;18.97;5.83;;;;;;;-1.67;81.09;98921.86;124360;1111;22961;-55
2021/01/29 00:44:28;;;;;;;14.00;3.70;;;;;;;-1.69;81.81;98929.73;124385;1112;23017;-53
2021/01/29 00:46:57;;;;;;;14.63;4.10;;;;;;;-1.71;81.69;98941.11;124339;1112;23181;-55
2021/01/29 00:49:27;;;;;;;18.10;4.07;;;;;;;-1.73;81.31;98943.51;124562;1112;23076;-53
2021/01/29 00:51:56;;;;;;;10.90;2.95;;;;;;;-1.75;81.21;98929.48;124644;1111;23071;-55
2021/01/29 00:54:25;;;;;;;15.57;3.17;;;;;;;-1.76;80.85;98891.62;124405;1112;23083;-53
2021/01/29 00:56:55;;;;;;;15.68;4.33;;;;;;;-1.79;80.90;98909.66;124335;1112;23148;-52
2021/01/29 00:59:23;;;;;;;16.20;3.50;;;;;;;-1.82;81.05;98918.70;124377;1112;22993;-55
2021/01/29 01:01:52;;;;;;;17.40;3.93;;;;;;;-1.84;81.99;98923.06;124410;1112;27777;-56
2021/01/29 01:04:23;;;;;;;14.40;2.95;;;;;;;-1.88;81.69;98930.58;124413;1111;23165;-55
2021/01/29 01:06:52;;;;;;;14.90;3.52;;;;;;;-1.91;81.88;98937.70;124438;1111;23017;-55
2021/01/29 01:09:21;;;;;;;16.50;4.90;;;;;;;-1.94;81.04;98924.08;124351;1112;23069;-53
2021/01/29 01:11:50;;;;;;;19.47;5.10;;;;;;;-1.97;82.18;98920.27;124320;1112;23024;-57
2021/01/29 01:14:19;;;;;;;19.30;5.42;;;;;;;-1.99;81.92;98939.06;124405;1112;26415;-54
2021/01/29 01:16:50;;;;;;;16.00;4.33;;;;;;;-1.99;81.94;98938.28;124487;1112;26467;-54
2021/01/29 01:19:19;;;;;;;18.82;4.62;;;;;;;-2.00;82.03;98931.27;124368;1112;26759;-53
2021/01/29 01:21:48;;;;;;;21.40;5.05;;;;;;;-2.00;82.06;98934.00;124404;1112;23017;-55
2021/01/29 01:24:17;;;;;;;21.13;5.53;;;;;;;-2.00;82.40;98940.24;124369;1111;27367;-56
2021/01/29 01:26:48;;;;;;;19.70;5.77;;;;;;;-1.99;82.95;98943.75;124430;1111;26127;-54
2021/01/29 01:29:15;;;;;;;;;;;;;;;-1.98;82.75;98951.52;124384;1112;23074;-55
2021/01/29 01:31:44;;;;;;;22.17;6.47;;;;;;;-1.98;82.34;98948.02;124291;1112;24214;-54
2021/01/29 01:34:13;;;;;;;24.00;6.20;;;;;;;-1.98;82.98;98948.79;124296;1112;23043;-55
2021/01/29 01:36:45;;;;;;;24.20;6.60;;;;;;;-1.98;82.87;98950.75;124738;1112;23030;-53
2021/01/29 01:39:14;;;;;;;27.43;7.40;;;;;;;-1.97;82.88;98944.09;124435;1112;23096;-54
2021/01/29 01:41:43;;;;;;;27.00;8.40;;;;;;;-1.96;82.85;98948.36;124342;1112;22984;-53
2021/01/29 01:44:27;;;;;;;26.93;8.67;;;;;;;-1.93;82.60;98945.56;124392;1112;23222;-55
2021/01/29 01:46:57;;;;;;;28.17;9.27;;;;;;;-1.91;83.24;98939.66;124543;1112;23149;-58
2021/01/29 01:49:27;;;;;;;26.77;8.08;;;;;;;-1.89;83.30;98934.53;124357;1111;23071;-56
2021/01/29 01:52:02;;;;;;;24.87;7.45;;;;;;;-1.87;83.13;98923.93;124564;1112;23152;-55
2021/01/29 01:54:37;;;;;;;26.67;7.07;;;;;;;-1.87;82.57;98930.17;124433;1112;23010;-56
2021/01/29 01:57:08;;;;;;;28.05;8.40;;;;;;;-1.85;82.69;98925.05;124438;1112;28641;-56
2021/01/29 01:59:41;;;;;;;19.45;6.33;;;;;;;-1.84;82.53;98917.59;124447;1112;25298;-54
2021/01/29 02:02:15;;;;;;;22.83;6.37;;;;;;;-1.84;82.68;98907.42;124406;1111;26165;-56
2021/01/29 02:04:46;;;;;;;25.17;7.47;;;;;;;-1.83;82.87;98913.67;124450;1111;23073;-54
2021/01/29 02:07:30;;;;;;;24.75;7.05;;;;;;;-1.82;82.02;98907.77;124426;1112;23070;-53
2021/01/29 02:10:03;;;;;;;20.17;5.77;;;;;;;-1.81;82.01;98906.58;124435;1112;26044;-55
2021/01/29 02:12:32;;;;;;;20.55;5.80;;;;;;;-1.81;82.58;98916.75;124444;1112;23020;-55
2021/01/29 02:15:02;;;;;;;21.50;6.10;;;;;;;-1.82;81.90;98918.70;124427;1112;23073;-53
2021/01/29 02:17:47;;;;;;;24.60;5.83;;;;;;;-1.83;82.58;98917.18;124584;1111;23070;-54
2021/01/29 02:20:51;;;;;;;18.43;6.53;;;;;;;-1.83;82.68;98924.61;124431;1111;23052;-53
2021/01/29 02:23:56;;;;;;;21.43;6.47;;;;;;;-1.85;82.84;98916.84;124353;1112;24664;-54
2021/01/29 02:27:02;;;;;;;22.25;6.55;;;;;;;-1.85;82.74;98927.78;124389;1112;23184;-53
2021/01/29 02:29:49;;;;;;;23.00;6.10;;;;;;;-1.87;82.08;98921.97;124158;1115;23228;-53
2021/01/29 02:32:49;;;;;;;22.40;6.55;;;;;;;-1.87;81.79;98923.93;124060;1114;23360;-52
2021/01/29 02:36:05;;;;;;;18.32;5.53;;;;;;;-1.88;81.67;98900.49;123743;1118;23186;-56
2021/01/29 02:39:09;;;;;;;19.00;5.67;;;;;;;-1.91;82.43;98913.08;123664;1119;23058;-55
2021/01/29 02:42:06;;;;;;;21.40;5.90;;;;;;;-1.90;82.50;98913.83;123684;1117;26198;-54
2021/01/29 02:44:57;;;;;;;16.60;4.63;;;;;;;-1.91;81.68;98906.84;123741;1116;23050;-52
2021/01/29 02:47:30;;;;;;;20.40;4.80;;;;;;;-1.93;82.25;98914.70;123724;1117;28437;-54
2021/01/29 02:50:18;;;;;;;20.60;5.03;;;;;;;-1.95;81.71;98903.41;123727;1118;23135;-55
2021/01/29 02:52:58;;;;;;;21.35;5.45;;;;;;;-1.97;82.14;98916.75;123757;1118;23195;-54
2021/01/29 02:55:33;;;;;;;20.90;4.92;;;;;;;-1.99;82.32;98914.45;123839;1117;23078;-54
2021/01/29 02:58:11;;;;;;;21.10;5.80;;;;;;;-1.99;82.15;98922.66;123649;1116;26607;-54
2021/01/29 03:00:46;;;;;;;18.80;5.30;;;;;;;-1.98;82.17;98926.13;123741;1118;27810;-55
2021/01/29 03:03:21;;;;;;;19.50;5.10;;;;;;;-1.99;82.45;98927.34;123951;1118;23122;-53
2021/01/29 03:05:54;;;;;;;17.27;4.50;;;;;;;-1.98;81.72;98928.87;123985;1115;23037;-54
2021/01/29 03:08:27;;;;;;;15.20;4.20;;;;;;;-1.98;82.15;98928.87;124063;1115;25306;-53
2021/01/29 03:11:03;;;;;;;20.45;4.45;;;;;;;-1.99;81.67;98921.88;124140;1114;23097;-57
2021/01/29 03:13:37;;;;;;;18.70;4.90;;;;;;;-2.00;82.46;98912.89;124214;1112;23081;-54
2021/01/29 03:16:15;;;;;;;17.40;4.20;;;;;;;-1.98;81.65;98920.66;124563;1112;23225;-55
2021/01/29 03:18:51;;;;;;;16.80;4.20;;;;;;;-1.98;82.18;98924.17;124415;1112;27082;-54
2021/01/29 03:21:26;;;;;;;18.35;4.80;;;;;;;-1.98;81.60;98917.93;124524;1112;27486;-53
2021/01/29 03:23:58;;;;;;;13.80;4.40;;;;;;;-1.97;81.52;98930.42;124402;1112;27842;-53
2021/01/29 03:26:32;;;;;;;17.45;4.35;;;;;;;-1.99;81.79;98930.08;124466;1111;23080;-53
2021/01/29 03:29:06;;;;;;;15.37;3.93;;;;;;;-1.99;82.25;98916.41;124359;1112;23088;-55
2021/01/29 03:31:38;;;;;;;12.07;3.43;;;;;;;-2.00;82.23;98921.09;124398;1112;23048;-53
2021/01/29 03:34:13;;;;;;;14.27;4.30;;;;;;;-2.00;81.42;98915.63;124444;1112;23225;-55
2021/01/29 03:36:47;;;;;;;15.93;3.30;;;;;;;-2.00;82.06;98907.42;124474;1112;24383;-53
2021/01/29 03:39:23;;;;;;;15.27;3.37;;;;;;;-2.01;82.35;98908.64;124769;1111;24602;-55
2021/01/29 03:42:02;;;;;;;16.03;3.07;;;;;;;-2.01;81.48;98908.64;124577;1112;26038;-57
2021/01/29 03:44:46;;;;;;;17.85;3.45;;;;;;;-2.02;81.49;98900.84;124493;1111;23071;-54
2021/01/29 03:47:20;;;;;;;14.77;3.23;;;;;;;-2.04;81.56;98905.97;128368;1110;22964;-57
2021/01/29 03:50:02;;;;;;;13.00;3.17;;;;;;;-2.04;81.67;98912.21;124472;1111;23056;-55
2021/01/29 03:52:42;;;;;;;14.10;3.33;;;;;;;-2.04;82.26;98908.70;124512;1110;27831;-55
2021/01/29 03:55:20;;;;;;;15.03;2.95;;;;;;;-2.05;81.76;98902.45;124455;1111;23219;-54
2021/01/29 03:57:58;;;;;;;11.30;2.40;;;;;;;-2.04;82.27;98897.77;124455;1110;27772;-54
2021/01/29 04:00:36;;;;;;;12.07;3.10;;;;;;;-2.04;81.88;98892.30;124371;1112;24825;-53
2021/01/29 04:03:14;;;;;;;17.03;4.00;;;;;;;-2.04;81.50;98886.83;124427;1111;26783;-53
2021/01/29 04:05:54;;;;;;;18.00;4.10;;;;;;;-2.02;81.95;98882.47;124324;1111;23087;-56
2021/01/29 04:08:30;;;;;;;15.30;3.70;;;;;;;-2.01;82.52;98894.19;124293;1112;23069;-53
2021/01/29 04:11:01;;;;;;;19.57;4.57;;;;;;;-2.01;82.00;98894.97;124361;1112;23421;-53
2021/01/29 04:13:37;;;;;;;17.50;3.33;;;;;;;-2.00;82.42;98898.45;124357;1112;23281;-53
2021/01/29 04:16:10;;;;;;;19.40;4.83;;;;;;;-2.00;82.54;98892.98;124382;1112;23071;-54
2021/01/29 04:18:45;;;;;;;18.50;4.80;;;;;;;-2.00;82.48;98901.95;124463;1112;23077;-58
2021/01/29 04:21:20;;;;;;;16.55;4.30;;;;;;;-2.00;82.21;98901.95;124436;1111;26035;-53
2021/01/29 04:23:57;;;;;;;18.57;4.00;;;;;;;-2.00;82.24;98895.71;124652;1111;23077;-55
2021/01/29 04:26:32;;;;;;;23.03;6.67;;;;;;;-2.00;82.53;98910.16;124410;1112;23219;-54
2021/01/29 04:29:06;;;;;;;28.05;6.20;;;;;;;-1.99;82.52;98910.94;124425;1111;26399;-53
2021/01/29 04:31:38;;;;;;;23.55;6.30;;;;;;;-1.99;81.88;98919.14;124348;1112;26408;-53
2021/01/29 04:34:12;;;;;;;20.03;4.33;;;;;;;-2.00;82.26;98917.59;124299;1112;23019;-54
2021/01/29 04:36:44;;;;;;;13.67;2.67;;;;;;;-2.02;81.99;98914.52;124315;1112;23017;-53
2021/01/29 04:39:17;;;;;;;14.43;2.90;;;;;;;-2.02;82.30;98917.25;124428;1111;23074;-53
2021/01/29 04:42:01;;;;;;;17.63;3.43;;;;;;;-2.03;82.69;98902.05;124339;1112;22983;-53
2021/01/29 04:44:57;;;;;;;14.93;3.43;;;;;;;-2.03;82.44;98904.78;124410;1112;23070;-53
2021/01/29 04:47:31;;;;;;;13.00;3.13;;;;;;;-2.02;82.58;98900.84;124401;1111;23151;-54
2021/01/29 04:50:21;;;;;;;11.97;2.83;;;;;;;-2.02;81.93;98903.58;124389;1111;23017;-55
2021/01/29 04:53:20;;;;;;;16.60;3.72;;;;;;;-2.04;82.06;98893.07;124445;1112;23003;-54
2021/01/29 04:56:18;;;;;;;19.70;3.93;;;;;;;-2.04;82.15;98887.60;124397;1112;23598;-55
2021/01/29 04:59:20;;;;;;;18.70;4.15;;;;;;;-2.05;81.62;98877.84;124428;1112;23077;-53
2021/01/29 05:02:26;;;;;;;20.20;4.85;;;;;;;-2.06;81.75;98883.75;124387;1111;23073;-53
2021/01/29 05:05:15;;;;;;;19.47;3.83;;;;;;;-2.05;82.05;98890.77;124356;1110;24655;-53
2021/01/29 05:08:10;;;;;;;14.63;3.03;;;;;;;-2.05;81.71;98877.09;124467;1112;23007;-54
2021/01/29 05:10:53;;;;;;;15.10;3.07;;;;;;;-2.05;82.18;98872.37;124310;1110;23023;-54
2021/01/29 05:13:40;;;;;;;17.77;4.63;;;;;;;-2.06;81.71;98875.55;124538;1111;23071;-53
2021/01/29 05:16:34;;;;;;;21.93;4.37;;;;;;;-2.05;82.20;98879.83;124473;1111;26284;-53
2021/01/29 05:19:30;;;;;;;18.90;3.53;;;;;;;-2.06;81.89;98887.27;124370;1112;23023;-53
2021/01/29 05:22:35;;;;;;;16.33;3.97;;;;;;;-2.07;81.87;98879.49;124351;1112;23033;-56
2021/01/29 05:25:39;;;;;;;23.27;5.20;;;;;;;-2.08;82.44;98864.27;124359;1112;23197;-52
2021/01/29 05:28:52;;;;;;;18.80;4.30;;;;;;;-2.06;82.41;98861.88;124331;1111;23219;-52
2021/01/29 05:31:41;;;;;;;21.55;5.60;;;;;;;-2.07;82.55;98857.62;124037;1115;23167;-53
2021/01/29 05:34:35;;;;;;;19.87;4.77;;;;;;;-2.06;82.50;98859.91;124016;1116;23099;-54
2021/01/29 05:37:42;;;;;;;16.07;3.53;;;;;;;-2.02;81.98;98865.29;124016;1115;23327;-56
2021/01/29 05:40:35;;;;;;;22.20;4.60;;;;;;;-2.02;82.65;98859.82;124148;1114;27574;-53
2021/01/29 05:43:30;;;;;;;14.60;4.07;;;;;;;-2.03;82.27;98864.52;124035;1115;24424;-54
2021/01/29 05:46:11;;;;;;;15.25;3.85;;;;;;;-2.02;81.82;98855.13;124080;1115;23271;-53
2021/01/29 05:49:09;;;;;;;16.80;3.90;;;;;;;-2.02;81.98;98859.82;124146;1116;23036;-55
2021/01/29 05:52:11;;;;;;;16.13;3.70;;;;;;;-2.01;81.66;98851.21;124015;1115;23073;-53
2021/01/29 05:55:05;;;;;;;11.77;2.80;;;;;;;-2.03;82.33;98856.31;124137;1115;23033;-54
2021/01/29 05:58:08;;;;;;;17.53;3.60;;;;;;;-2.05;81.53;98853.23;124129;1115;23029;-61
2021/01/29 06:01:17;;;;;;;19.63;3.83;;;;;;;-2.06;82.02;98846.24;124014;1114;23215;-57
2021/01/29 06:04:05;;;;;;;16.13;2.90;;;;;;;-2.08;81.83;98845.91;123718;1119;23304;-53
2021/01/29 06:07:07;;;;;;;15.37;2.83;;;;;;;-2.09;81.36;98846.34;123697;1118;23065;-57
2021/01/29 06:10:01;;;;;;;15.83;3.40;;;;;;;-2.09;81.45;98840.88;123727;1115;23361;-55
2021/01/29 06:12:58;;;;;;;22.37;4.10;;;;;;;-2.07;81.62;98838.48;123654;1114;26089;-56
2021/01/29 06:15:49;;;;;;;16.23;4.20;;;;;;;-2.05;81.77;98849.75;123788;1116;23477;-57
2021/01/29 06:18:30;;;;;;;;;;;;;;;-2.05;82.33;98845.03;123790;1115;23013;-55
2021/01/29 06:21:28;;;;;;;17.77;3.13;;;;;;;-2.04;82.14;98848.55;124122;1114;21596;-54
2021/01/29 06:24:22;;;;;;;17.47;5.23;;;;;;;-2.05;81.90;98847.77;123899;1116;23213;-57
2021/01/29 06:27:23;;;;;;;19.00;5.57;;;;;;;-2.04;81.80;98840.34;123882;1115;26179;-56
2021/01/29 06:30:13;;;;;;;18.40;4.70;;;;;;;-2.04;82.51;98849.32;123764;1115;24649;-56
2021/01/29 06:33:05;;;;;;;14.87;3.53;;;;;;;-2.03;81.87;98839.16;124543;1115;23032;-56
2021/01/29 06:35:54;;;;;;;13.87;3.00;;;;;;;-2.03;81.66;98836.42;124308;1116;23000;-54
2021/01/29 06:38:36;;;;;;;16.27;3.70;;;;;;;-2.03;82.49;98828.22;124029;1115;23092;-54
2021/01/29 06:42:04;;;;;;;16.67;4.03;;;;;;;-2.04;81.63;98821.97;124296;1115;23233;-57
2021/01/29 06:45:11;;;;;;;17.77;4.80;;;;;;;-2.07;82.42;98822.07;123748;1111;23076;-55
2021/01/29 06:48:02;;;;;;;17.90;3.40;;;;;;;-2.09;81.46;98813.53;123986;1114;23016;-57
2021/01/29 06:50:56;;;;;;;15.60;3.97;;;;;;;-2.12;82.19;98806.17;124170;1112;28641;-54
2021/01/29 06:53:59;;;;;;;18.77;4.87;;;;;;;-2.13;82.40;98813.59;123751;1115;25565;-54
2021/01/29 06:57:02;;;;;;;14.23;3.93;;;;;;;-2.13;81.64;98807.38;123845;1116;23033;-54
2021/01/29 06:59:58;;;;;;;16.17;3.53;;;;;;;-2.14;81.85;98805.83;123782;1115;23276;-57
2021/01/29 07:02:50;;;;;;;19.87;3.80;;;;;;;-2.12;82.45;98814.38;124076;1115;24796;-54
2021/01/29 07:05:41;;;;;;;14.93;3.37;;;;;;;-2.12;82.46;98801.48;123718;1115;23093;-55
2021/01/29 07:08:21;;;;;;;16.60;4.43;;;;;;;-2.11;82.49;98794.80;124300;1115;23582;-56
2021/01/29 07:11:08;;;;;;;17.00;4.13;;;;;;;-2.10;82.56;98792.84;123981;1115;23334;-55
2021/01/29 07:14:00;;;;;;;27.83;4.10;;;;;;;-2.08;82.00;98791.22;123797;1115;23092;-55
2021/01/29 07:16:50;;;;;;;17.00;3.73;;;;;;;-2.07;81.80;98786.53;123896;1114;23185;-54
2021/01/29 07:19:29;;;;;;;20.02;3.83;;;;;;;-2.08;82.08;98791.22;123923;1114;23071;-54
2021/01/29 07:22:45;;;;;;;19.73;4.57;;;;;;;-2.06;82.36;98794.30;124149;1112;23219;-54
2021/01/29 07:25:21;;;;;;;17.40;3.87;;;;;;;-2.01;81.79;98771.91;123955;1112;27512;-57
2021/01/29 07:28:00;;;;;;;21.90;6.10;;;;;;;-1.97;81.81;98761.64;124935;1113;23060;-56
2021/01/29 07:31:13;;;;;;;23.20;6.57;;;;;;;-1.92;82.38;98752.91;124217;1110;23018;-54
2021/01/29 07:33:51;;;;;;;24.35;6.80;;;;;;;-1.89;82.27;98759.48;124291;1111;23326;-57
2021/01/29 07:36:38;;;;;;;32.67;9.30;;;;;;;-1.89;82.18;98762.99;124228;1111;23019;-56
2021/01/29 07:39:25;;;;;;;34.20;9.03;;;;;;;-1.85;81.81;98773.83;124376;1112;23170;-54
2021/01/29 07:42:14;;;;;;;28.97;9.47;;;;;;;-1.87;81.24;98777.00;124178;1112;23253;-53
2021/01/29 07:44:55;;;;;;;28.43;9.70;;;;;;;-1.88;82.05;98783.66;124692;1110;27476;-54
2021/01/29 07:47:40;;;;;;;31.77;9.53;;;;;;;-1.85;81.69;98782.03;123949;1112;23010;-56
2021/01/29 07:50:24;;;;;;;30.00;9.20;;;;;;;-1.86;81.26;98780.48;124557;1112;23239;-57
2021/01/29 07:53:01;;;;;;;25.33;8.90;;;;;;;-1.92;82.15;98779.47;124292;1112;23462;-57
2021/01/29 07:55:35;;;;;;;21.10;7.95;;;;;;;-1.95;82.25;98764.72;124531;1112;22988;-57
2021/01/29 07:58:27;;;;;;;18.95;6.50;;;;;;;-1.95;82.42;98750.27;124471;1112;27631;-57
2021/01/29 08:01:20;;;;;;;24.87;9.23;;;;;;;-1.93;81.96;98745.91;124080;1112;23219;-57
2021/01/29 08:04:14;;;;;;;23.17;7.53;;;;;;;-1.94;81.68;98749.83;123954;1112;23050;-56
2021/01/29 08:06:59;;;;;;;26.20;7.57;;;;;;;-1.92;82.24;98738.45;124566;1111;24859;-57
2021/01/29 08:09:32;;;;;;;28.20;8.03;;;;;;;-1.93;81.98;98729.50;125359;1112;26383;-56
2021/01/29 08:12:06;;;;;;;27.23;9.17;;;;;;;-1.90;82.11;98738.78;124412;1110;23006;-55
2021/01/29 08:15:01;;;;;;;31.70;8.60;;;;;;;-1.89;82.10;98746.58;124136;1112;23077;-55
2021/01/29 08:17:49;;;;;;;29.70;9.00;;;;;;;-1.89;81.76;98745.80;124025;1111;23026;-57
2021/01/29 08:20:41;;;;;;;27.47;8.80;;;;;;;-1.88;81.59;98745.37;124170;1112;23074;-57
2021/01/29 08:23:23;;;;;;;27.77;9.67;;;;;;;-1.85;82.55;98738.27;124238;1111;23089;-57
2021/01/29 08:26:23;;;;;;;25.07;8.27;;;;;;;-1.82;81.87;98716.28;124086;1112;23061;-57
2021/01/29 08:29:25;;;;;;;28.83;9.83;;;;;;;-1.76;82.08;98714.55;124731;1111;23157;-54
2021/01/29 08:32:34;;;;;;;26.00;8.87;;;;;;;-1.71;82.00;98713.25;124068;1111;24635;-56
2021/01/29 08:35:47;;;;;;;20.67;6.93;;;;;;;-1.73;81.66;98710.19;124030;1111;26051;-57
2021/01/29 08:38:24;;;;;;;25.77;7.07;;;;;;;-1.74;81.50;98714.14;123868;1112;23912;-55
2021/01/29 08:41:01;;;;;;;18.13;4.93;;;;;;;-1.76;81.06;98714.55;123751;1114;23151;-57
2021/01/29 08:43:55;;;;;;;18.80;5.27;;;;;;;-1.76;81.97;98719.28;123763;1112;27478;-56
2021/01/29 08:46:41;;;;;;;19.43;6.20;;;;;;;-1.74;81.09;98709.41;124497;1112;23027;-54
2021/01/29 08:49:30;;;;;;;23.93;6.33;;;;;;;-1.71;81.04;98710.52;123968;1112;23057;-57
2021/01/29 08:52:13;;;;;;;20.57;6.23;;;;;;;-1.70;81.23;98710.08;124277;1112;23055;-54
2021/01/29 08:55:04;;;;;;;19.03;5.27;;;;;;;-1.67;81.49;98714.70;124427;1112;23020;-55
2021/01/29 08:57:42;;;;;;;21.23;6.10;;;;;;;-1.65;81.66;98700.58;124011;1112;22988;-56
2021/01/29 09:00:20;;;;;;;20.43;6.00;;;;;;;-1.62;81.54;98699.72;124217;1111;23185;-56
2021/01/29 09:03:03;;;;;;;27.33;7.10;;;;;;;-1.59;81.38;98692.62;123929;1112;23175;-57
2021/01/29 09:05:34;;;;;;;22.40;6.13;;;;;;;-1.57;81.26;98684.73;124627;1111;23034;-56
2021/01/29 09:08:07;;;;;;;19.93;5.23;;;;;;;-1.55;80.82;98688.55;124770;1112;23024;-56
2021/01/29 09:10:58;;;;;;;22.03;6.27;;;;;;;-1.52;81.09;98686.92;124468;1112;23189;-57
2021/01/29 09:13:29;;;;;;;19.95;4.90;;;;;;;-1.45;80.75;98687.50;123987;1112;23252;-57
2021/01/29 09:16:05;;;;;;;18.50;4.87;;;;;;;-1.41;81.10;98687.39;125272;1111;23080;-57
2021/01/29 09:18:41;;;;;;;21.70;5.77;;;;;;;-1.36;80.64;98681.36;124223;1112;23223;-57
2021/01/29 09:21:28;;;;;;;18.80;4.80;;;;;;;-1.32;80.54;98680.05;124680;1111;23087;-55
2021/01/29 09:24:05;;;;;;;19.83;5.57;;;;;;;-1.26;80.73;98678.30;125329;1111;26479;-56
2021/01/29 09:26:40;;;;;;;24.50;5.67;;;;;;;-1.20;80.10;98678.55;124089;1112;23071;-57
2021/01/29 09:29:26;;;;;;;22.53;5.93;;;;;;;-1.18;80.81;98674.14;124491;1111;23017;-57
2021/01/29 09:32:01;;;;;;;21.10;5.47;;;;;;;-1.11;80.77;98667.68;124046;1111;23077;-57
2021/01/29 09:34:36;;;;;;;19.03;5.93;;;;;;;-1.07;80.50;98665.59;124235;1111;24727;-55
2021/01/29 09:37:10;;;;;;;17.93;5.90;;;;;;;-1.03;79.80;98658.81;124197;1112;22989;-55
2021/01/29 09:39:46;;;;;;;20.83;4.87;;;;;;;-0.99;80.18;98667.67;124144;1110;27900;-54
2021/01/29 09:42:24;;;;;;;19.40;5.23;;;;;;;-0.96;79.94;98658.59;124309;1110;23056;-55
2021/01/29 09:44:59;;;;;;;21.97;5.33;;;;;;;-0.93;79.78;98654.19;124413;1112;23073;-56
2021/01/29 09:47:33;;;;;;;18.10;4.87;;;;;;;-0.87;79.56;98644.98;124322;1111;23017;-53
2021/01/29 09:50:08;;;;;;;21.17;5.13;;;;;;;-0.79;79.84;98639.28;124192;1112;26047;-55
2021/01/29 09:53:06;;;;;;;22.07;4.73;;;;;;;-0.72;80.56;98639.80;124393;1111;23077;-56
2021/01/29 09:55:41;;;;;;;18.80;5.23;;;;;;;-0.65;79.83;98633.33;124291;1112;23215;-54
2021/01/29 09:58:20;;;;;;;19.07;4.40;;;;;;;-0.63;79.21;98625.42;124871;1112;23017;-55
2021/01/29 10:01:05;;;;;;;18.00;4.53;;;;;;;-0.63;79.90;98623.45;125384;1111;23202;-55
2021/01/29 10:03:39;;;;;;;17.40;5.57;;;;;;;-0.60;79.23;98611.59;124693;1111;22998;-54
2021/01/29 10:06:13;;;;;;;19.87;4.80;;;;;;;-0.54;79.53;98601.63;124499;1111;26380;-54
2021/01/29 10:08:46;;;;;;;22.10;5.30;;;;;;;-0.47;79.27;98593.14;124622;1111;23080;-55
2021/01/29 10:11:23;;;;;;;21.43;6.67;;;;;;;-0.42;80.27;98598.06;124473;1111;23619;-56
2021/01/29 10:14:06;;;;;;;22.90;6.10;;;;;;;-0.37;79.97;98596.70;124530;1112;23071;-55
2021/01/29 10:16:39;;;;;;;23.53;6.73;;;;;;;-0.32;79.18;98588.70;124628;1111;25443;-54
2021/01/29 10:19:29;;;;;;;23.40;6.93;;;;;;;-0.28;80.00;98594.05;124603;1112;23029;-55
2021/01/29 10:22:56;;;;;;;65.87;25.53;;;;;;;-0.24;79.34;98592.72;124064;1112;23097;-55
2021/01/29 10:25:36;;;;;;;27.45;10.65;;;;;;;-0.18;80.03;98590.16;123998;1115;23109;-55
2021/01/29 10:28:14;;;;;;;31.57;9.38;;;;;;;-0.13;79.97;98582.14;124364;1115;23092;-58
2021/01/29 10:30:51;;;;;;;26.20;8.10;;;;;;;-0.09;79.67;98576.52;123986;1115;23213;-56
2021/01/29 10:33:25;;;;;;;42.03;13.03;;;;;;;-0.04;79.59;98573.17;124170;1115;23060;-56
2021/01/29 10:36:02;;;;;;;102.27;32.00;;;;;;;0.00;79.37;98574.58;124132;1115;23013;-54
2021/01/29 10:38:41;;;;;;;70.40;21.60;;;;;;;0.05;80.08;98570.50;124024;1116;23039;-58
2021/01/29 10:41:19;;;;;;;43.27;13.23;;;;;;;0.08;79.77;98568.84;124605;1116;27708;-55
2021/01/29 10:43:55;;;;;;;70.25;22.75;;;;;;;0.09;78.89;98571.13;124454;1113;23059;-56
2021/01/29 10:46:54;;;;;;;35.70;12.25;;;;;;;0.09;79.18;98573.88;123976;1116;23308;-56
2021/01/29 10:49:34;;;;;;;60.67;19.17;;;;;;;0.12;79.68;98563.98;125215;1115;23002;-55
2021/01/29 10:52:13;;;;;;;40.65;12.33;;;;;;;0.14;79.44;98562.33;124043;1115;29110;-55
2021/01/29 10:54:46;;;;;;;44.43;14.53;;;;;;;0.16;79.42;98557.16;124576;1114;23055;-57
2021/01/29 10:57:22;;;;;;;47.10;14.33;;;;;;;0.19;79.74;98558.24;124410;1113;23068;-55
2021/01/29 10:59:57;;;;;;;37.47;10.60;;;;;;;0.21;79.50;98556.56;126755;1112;23190;-54
2021/01/29 11:02:33;;;;;;;55.60;16.00;;;;;;;0.24;79.66;98554.90;124113;1111;26224;-56
2021/01/29 11:05:07;;;;;;;36.43;11.10;;;;;;;0.25;79.64;98543.47;124214;1110;24843;-55
2021/01/29 11:07:39;;;;;;;61.40;20.73;;;;;;;0.26;79.42;98538.75;124325;1111;24706;-56
2021/01/29 11:10:17;;;;;;;63.17;20.90;;;;;;;0.27;79.41;98543.03;124808;1111;23022;-55
2021/01/29 11:12:56;;;;;;;28.83;8.83;;;;;;;0.27;79.02;98541.03;124638;1111;23152;-57
2021/01/29 11:15:45;;;;;;;25.00;7.13;;;;;;;0.29;79.18;98532.37;127000;1111;23009;-58
2021/01/29 11:18:22;;;;;;;26.07;7.17;;;;;;;0.30;78.77;98531.91;124812;1111;23026;-57
2021/01/29 11:20:58;;;;;;;24.27;6.87;;;;;;;0.32;78.28;98525.96;124668;1112;23012;-59
2021/01/29 11:23:35;;;;;;;28.73;6.77;;;;;;;0.33;78.61;98535.73;126307;1111;27406;-57
2021/01/29 11:26:17;;;;;;;22.50;5.60;;;;;;;0.35;79.03;98531.30;124988;1110;25976;-59
2021/01/29 11:28:59;;;;;;;19.83;5.60;;;;;;;0.35;78.54;98536.80;124597;1110;24746;-59
2021/01/29 11:31:44;;;;;;;25.07;7.17;;;;;;;0.36;77.96;98523.84;124439;1111;22980;-57
2021/01/29 11:34:24;;;;;;;28.43;8.50;;;;;;;0.37;79.06;98523.41;124691;1111;23179;-55
2021/01/29 11:37:05;;;;;;;30.62;10.35;;;;;;;0.40;78.59;98525.23;124913;1112;23071;-57
2021/01/29 11:39:45;;;;;;;25.77;8.60;;;;;;;0.40;78.47;98511.52;124756;1111;22988;-58
2021/01/29 11:42:27;;;;;;;35.57;11.53;;;;;;;0.41;78.39;98512.28;124634;1112;24612;-57
2021/01/29 11:45:02;;;;;;;39.90;12.63;;;;;;;0.40;78.37;98514.26;124992;1111;23209;-57
2021/01/29 11:47:45;;;;;;;48.83;19.57;;;;;;;0.42;78.33;98505.56;125060;1110;23686;-54
2021/01/29 11:50:20;;;;;;;64.27;27.47;;;;;;;0.44;79.03;98498.41;124773;1111;26053;-56
2021/01/29 11:52:59;;;;;;;69.63;27.80;;;;;;;0.42;78.55;98498.09;125216;1111;23026;-56
2021/01/29 11:55:33;;;;;;;33.43;12.20;;;;;;;0.43;78.40;98501.61;128332;1111;22856;-59
2021/01/29 11:58:12;;;;;;;53.20;20.63;;;;;;;0.45;77.93;98497.20;125962;1111;25937;-59
2021/01/29 12:00:46;;;;;;;110.93;47.17;;;;;;;0.47;78.48;98488.51;125301;1111;23083;-57
2021/01/29 12:03:24;;;;;;;50.30;23.57;;;;;;;0.49;78.34;98486.84;125215;1111;22972;-57
2021/01/29 12:05:59;;;;;;;38.10;14.07;;;;;;;0.49;77.86;98475.86;125303;1110;23047;-57
2021/01/29 12:08:39;;;;;;;33.60;13.10;;;;;;;0.48;77.45;98471.58;125091;1111;23030;-57
2021/01/29 12:11:20;;;;;;;33.60;13.25;;;;;;;0.50;77.50;98471.88;124933;1112;22979;-58
2021/01/29 12:13:54;;;;;;;;;;;;;;;0.51;78.49;98461.67;124710;1112;24670;-58
2021/01/29 12:16:27;;;;;;;29.27;10.80;;;;;;;0.55;78.62;98471.30;124766;1110;21540;-58
2021/01/29 12:18:58;;;;;;;41.95;15.40;;;;;;;0.58;78.21;98464.88;124814;1111;22994;-58
2021/01/29 12:21:45;;;;;;;37.40;12.33;;;;;;;0.61;77.92;98458.49;124886;1112;24643;-57
2021/01/29 12:24:28;;;;;;;37.77;12.63;;;;;;;0.62;77.33;98460.01;124723;1110;23077;-58
2021/01/29 12:27:04;;;;;;;22.13;6.87;;;;;;;0.65;77.97;98445.38;125122;1112;23071;-58